Nyk Deneb — 3EOF8 — position and weather

sailwx.info

Track history (hours):
 
Tides and Currents Weather Stations Pressure Air Temp Water Temp Dewpoint Dewpoint Depression Visibility Wind Speed Wind Dir Waves Ship Positions

Nyk Deneb

Last reported at 2015-Apr-11 19:33 UTC. Time now 2015-May-05 02:10 UTC.
Position N 31°56' W 080°29'.
Warning: this ship's position is 23 days out of date.

Length 294 m; draft 12.1 m.

Type: Ship (hazmat cat B). MMSI: 355717000.

Date/timePositionNaut miles runAvg speedWind from/ knotsBaromVisibWave heightAir tempDewpointWater temp
2015-Apr-11 19:33N 31°56' W 080°29'10 9.6
2015-Apr-11 18:33N 31°56' W 080°40'1111.4
2015-Apr-11 17:33N 32°02' W 080°52'9 8.7
2015-Apr-11 16:34N 32°06' W 081°01'5 5.1
2015-Apr-11 15:33N 32°06' W 081°07'1 1.3
2015-Apr-11 14:34N 32°07' W 081°08'0 0.0
2015-Apr-11 13:33N 32°07' W 081°08'0 0.0
2015-Apr-11 12:34N 32°07' W 081°08'0 0.0
2015-Apr-11 11:34N 32°07' W 081°08'0 0.0
2015-Apr-11 10:34N 32°07' W 081°08'0 0.0
2015-Apr-11 09:34N 32°07' W 081°08'0 0.0
2015-Apr-11 08:34N 32°07' W 081°08'0 0.0
2015-Apr-11 07:34N 32°07' W 081°08'0 0.0
2015-Apr-11 06:34N 32°07' W 081°08'0 0.0
2015-Apr-11 05:34N 32°07' W 081°08'0 0.0
2015-Apr-11 04:33N 32°07' W 081°08'0 0.0
2015-Apr-11 03:34N 32°07' W 081°08'0 0.0
2015-Apr-11 02:33N 32°07' W 081°08'0 0.0
2015-Apr-11 01:34N 32°07' W 081°08'0 0.0
2015-Apr-11 00:33N 32°07' W 081°08'0 0.0
2015-Apr-10 23:34N 32°07' W 081°08'0 0.0
2015-Apr-10 22:34N 32°07' W 081°08'0 0.0
2015-Apr-10 21:33N 32°07' W 081°08'0 0.0
2015-Apr-10 20:34N 32°07' W 081°08'0 0.0
2015-Apr-10 19:33N 32°07' W 081°08'0 0.0
2015-Apr-10 18:34N 32°07' W 081°08'0 0.0
2015-Apr-10 17:34N 32°07' W 081°08'0 0.0
2015-Apr-10 16:33N 32°07' W 081°08'0 0.1
2015-Apr-10 15:34N 32°08' W 081°08'2 2.1
2015-Apr-10 14:33N 32°06' W 081°07'7 6.6
2015-Apr-10 13:34N 32°05' W 080°59'1211.6
2015-Apr-10 12:33N 31°60' W 080°47'1010.2
2015-Apr-10 11:33N 31°56' W 080°35'5 5.1
2015-Apr-10 10:33N 31°57' W 080°30'8 7.5
2015-Apr-10 09:32N 31°57' W 080°20'1010.0
2015-Apr-10 08:31N 31°57' W 080°08'1413.7
2015-Apr-10 07:31N 32°01' W 079°53'1814.4
2015-Apr-10 06:18N 32°10' W 079°35'1214.5
2015-Apr-10 05:29N 32°16' W 079°23'1414.2
2015-Apr-10 04:29N 32°23' W 079°09'1514.6
2015-Apr-10 03:28N 32°31' W 078°54'  
2015-Apr-07 16:19N 39°36' W 073°53'1215.6
2015-Apr-07 15:33N 39°48' W 073°52'1615.4
2015-Apr-07 14:30N 40°04' W 073°51'1111.1
2015-Apr-07 13:31N 40°15' W 073°50'9 9.6
2015-Apr-07 12:33N 40°24' W 073°50'8 8.5
2015-Apr-07 11:33N 40°30' W 073°57'1110.6
2015-Apr-07 10:33N 40°39' W 074°05'4 4.1
2015-Apr-07 09:33N 40°39' W 074°11'0 0.3
2015-Apr-07 08:32N 40°39' W 074°11'0 0.0
2015-Apr-07 07:31N 40°39' W 074°11'0 0.0
2015-Apr-07 06:04N 40°39' W 074°11'0 0.0
2015-Apr-07 04:22N 40°39' W 074°11'0 0.0
2015-Apr-07 03:07N 40°39' W 074°11'0 0.0
2015-Apr-07 02:28N 40°39' W 074°11'0 0.0
2015-Apr-07 01:28N 40°39' W 074°11'0 0.0
2015-Apr-06 23:19N 40°39' W 074°11'0 0.0
2015-Apr-06 22:31N 40°39' W 074°11'0 0.0
2015-Apr-06 20:13N 40°39' W 074°11'0 0.0
2015-Apr-06 19:31N 40°39' W 074°11'0 0.0
2015-Apr-06 18:04N 40°39' W 074°11'0 0.0
2015-Apr-06 17:31N 40°39' W 074°11'0 0.0
2015-Apr-06 16:31N 40°39' W 074°11'0 0.0
2015-Apr-06 15:32N 40°39' W 074°11'2 1.9
2015-Apr-06 14:33N 40°39' W 074°09'5 5.5
2015-Apr-06 13:33N 40°36' W 074°02'1111.4
2015-Apr-06 12:33N 40°28' W 073°52'6 6.3
2015-Apr-06 11:33N 40°23' W 073°47'6 6.5
2015-Apr-06 10:34N 40°16' W 073°46'9 7.9
2015-Apr-06 09:27N 40°08' W 073°44'1111.9
2015-Apr-06 08:33N 39°57' W 073°42'1413.8
2015-Apr-06 07:33N 39°43' W 073°41'1414.1
2015-Apr-06 06:33N 39°29' W 073°41'1514.2
2015-Apr-06 05:31N 39°15' W 073°40'1514.3
2015-Apr-06 04:28N 38°60' W 073°40'  
Track history (hours):
 
Tides and Currents Weather Stations Pressure Air Temp Water Temp Dewpoint Dewpoint Depression Visibility Wind Speed Wind Dir Waves Ship Positions

Nyk Deneb

Last reported at 2015-Apr-11 19:33 UTC. Time now 2015-May-05 02:10 UTC.
Position N 31°56' W 080°29'.
Warning: this ship's position is 23 days out of date.

Length 294 m; draft 12.1 m.

Type: Ship (hazmat cat B). MMSI: 355717000.

Date/timePositionNaut miles runAvg speedWind from/ knotsBaromVisibWave heightAir tempDewpointWater temp
2015-Apr-11 19:33N 31°56' W 080°29'10 9.6
2015-Apr-11 18:33N 31°56' W 080°40'1111.4
2015-Apr-11 17:33N 32°02' W 080°52'9 8.7
2015-Apr-11 16:34N 32°06' W 081°01'5 5.1
2015-Apr-11 15:33N 32°06' W 081°07'1 1.3
2015-Apr-11 14:34N 32°07' W 081°08'0 0.0
2015-Apr-11 13:33N 32°07' W 081°08'0 0.0
2015-Apr-11 12:34N 32°07' W 081°08'0 0.0
2015-Apr-11 11:34N 32°07' W 081°08'0 0.0
2015-Apr-11 10:34N 32°07' W 081°08'0 0.0
2015-Apr-11 09:34N 32°07' W 081°08'0 0.0
2015-Apr-11 08:34N 32°07' W 081°08'0 0.0
2015-Apr-11 07:34N 32°07' W 081°08'0 0.0
2015-Apr-11 06:34N 32°07' W 081°08'0 0.0
2015-Apr-11 05:34N 32°07' W 081°08'0 0.0
2015-Apr-11 04:33N 32°07' W 081°08'0 0.0
2015-Apr-11 03:34N 32°07' W 081°08'0 0.0
2015-Apr-11 02:33N 32°07' W 081°08'0 0.0
2015-Apr-11 01:34N 32°07' W 081°08'0 0.0
2015-Apr-11 00:33N 32°07' W 081°08'0 0.0
2015-Apr-10 23:34N 32°07' W 081°08'0 0.0
2015-Apr-10 22:34N 32°07' W 081°08'0 0.0
2015-Apr-10 21:33N 32°07' W 081°08'0 0.0
2015-Apr-10 20:34N 32°07' W 081°08'0 0.0
2015-Apr-10 19:33N 32°07' W 081°08'0 0.0
2015-Apr-10 18:34N 32°07' W 081°08'0 0.0
2015-Apr-10 17:34N 32°07' W 081°08'0 0.0
2015-Apr-10 16:33N 32°07' W 081°08'0 0.1
2015-Apr-10 15:34N 32°08' W 081°08'2 2.1
2015-Apr-10 14:33N 32°06' W 081°07'7 6.6
2015-Apr-10 13:34N 32°05' W 080°59'1211.6
2015-Apr-10 12:33N 31°60' W 080°47'1010.2
2015-Apr-10 11:33N 31°56' W 080°35'5 5.1
2015-Apr-10 10:33N 31°57' W 080°30'8 7.5
2015-Apr-10 09:32N 31°57' W 080°20'1010.0
2015-Apr-10 08:31N 31°57' W 080°08'1413.7
2015-Apr-10 07:31N 32°01' W 079°53'1814.4
2015-Apr-10 06:18N 32°10' W 079°35'1214.5
2015-Apr-10 05:29N 32°16' W 079°23'1414.2
2015-Apr-10 04:29N 32°23' W 079°09'1514.6
2015-Apr-10 03:28N 32°31' W 078°54'  
2015-Apr-07 16:19N 39°36' W 073°53'1215.6
2015-Apr-07 15:33N 39°48' W 073°52'1615.4
2015-Apr-07 14:30N 40°04' W 073°51'1111.1
2015-Apr-07 13:31N 40°15' W 073°50'9 9.6
2015-Apr-07 12:33N 40°24' W 073°50'8 8.5
2015-Apr-07 11:33N 40°30' W 073°57'1110.6
2015-Apr-07 10:33N 40°39' W 074°05'4 4.1
2015-Apr-07 09:33N 40°39' W 074°11'0 0.3
2015-Apr-07 08:32N 40°39' W 074°11'0 0.0
2015-Apr-07 07:31N 40°39' W 074°11'0 0.0
2015-Apr-07 06:04N 40°39' W 074°11'0 0.0
2015-Apr-07 04:22N 40°39' W 074°11'0 0.0
2015-Apr-07 03:07N 40°39' W 074°11'0 0.0
2015-Apr-07 02:28N 40°39' W 074°11'0 0.0
2015-Apr-07 01:28N 40°39' W 074°11'0 0.0
2015-Apr-06 23:19N 40°39' W 074°11'0 0.0
2015-Apr-06 22:31N 40°39' W 074°11'0 0.0
2015-Apr-06 20:13N 40°39' W 074°11'0 0.0
2015-Apr-06 19:31N 40°39' W 074°11'0 0.0
2015-Apr-06 18:04N 40°39' W 074°11'0 0.0
2015-Apr-06 17:31N 40°39' W 074°11'0 0.0
2015-Apr-06 16:31N 40°39' W 074°11'0 0.0
2015-Apr-06 15:32N 40°39' W 074°11'2 1.9
2015-Apr-06 14:33N 40°39' W 074°09'5 5.5
2015-Apr-06 13:33N 40°36' W 074°02'1111.4
2015-Apr-06 12:33N 40°28' W 073°52'6 6.3
2015-Apr-06 11:33N 40°23' W 073°47'6 6.5
2015-Apr-06 10:34N 40°16' W 073°46'9 7.9
2015-Apr-06 09:27N 40°08' W 073°44'1111.9
2015-Apr-06 08:33N 39°57' W 073°42'1413.8
2015-Apr-06 07:33N 39°43' W 073°41'1414.1
2015-Apr-06 06:33N 39°29' W 073°41'1514.2
2015-Apr-06 05:31N 39°15' W 073°40'1514.3
2015-Apr-06 04:28N 38°60' W 073°40'  

Dump ship's entire track history